Weather at Elzenborn airport - EBLB


metar: EBLB 170625Z 00000KT 9999 FEW230 03/M01 Q1024 BLU

16 minuten geleden, om 06:25 UTC, de wind blies kalm nabij Elzenborn airport. De temperatuur was 3 °C (37 °F), en de barometerdruk was 1,024 hPa (30.24 inHg). De relatieve vochtigheid was 74.9%. er was weinig bewolking op een hoogte van 7010 meter (23000 voet). De zichtbaarheid was >10 kilometer (>6.2 mijl).

temperature image   windir image sky image 

Last 24 hour graph Elzenborn airport - EBLB